Last Month

Pierce College

Hourly Data | America/Los_Angeles
as of 6/22/21 11:22 PM PDT
Date & Time Temp Max (°F) Temp Min (°F) RH (%) Dew Pt (°F) Latest Rain (In) Soil Temp (°F) Soil Moist (%) Wind Spd (mph) Wind Dir (°) Wind Gust (mph) Leaf Wet Raw (mV) Net Radiation (W/m²) Evap Pan Max Wind (mph) Evap Pan H2O Max Temp (°F) Evap Pan Level (In)
5/31/21 - 2300 61.8 60.4 76 53.5 0.00 78.2 28.6 0.6 NE | 55 2.2 273 -61 1.1 59.8 3.7
5/31/21 - 2200 64.5 61.7 70 53.1 0.00 78.1 28.6 0.5 ENE | 61 2.7 271 -65 1.2 63.0 3.7
5/31/21 - 2100 67.4 64.4 62 52.7 0.00 78.2 28.6 0.8 ENE | 57 2.5 270 -69 1.4 65.8 3.7
5/31/21 - 2000 71.4 67.3 55 52.4 0.00 78.1 28.6 0.9 ENE | 58 3.0 268 -74 2.4 71.8 3.7
5/31/21 - 1900 75.4 71.2 49 52.6 0.00 77.9 28.6 1.6 NE | 49 3.5 268 -55 2.1 80.7 3.7
5/31/21 - 1800 78.8 75.3 45 53.8 0.00 77.9 28.6 2.4 NE | 46 4.8 267 68 2.8 83.4 3.8
5/31/21 - 1700 82.0 78.5 40 53.9 0.00 75.0 28.5 2.8 ENE | 70 8.7 266 213 4.7 89.6 3.8
5/31/21 - 1600 84.4 81.6 37 54.0 0.00 75.4 28.4 2.8 ENE | 58 5.5 266 347 3.5 96.3 3.8
5/31/21 - 1500 85.8 83.4 36 55.2 0.00 75.3 28.4 2.7 ENE | 61 6.3 266 463 4.2 105.3 3.8
5/31/21 - 1400 85.8 81.6 37 54.6 0.00 74.0 28.4 2.0 NNE | 21 7.2 266 547 4.2 121.9 3.8
5/31/21 - 1300 82.1 77.2 43 55.2 0.00 75.5 28.2 1.9 NE | 37 5.2 266 597 3.1 131.6 3.7
5/31/21 - 1200 78.8 71.8 50 54.9 0.00 75.8 28.2 1.5 NNW | 343 4.9 266 610 4.3 133.3 3.7
5/31/21 - 1100 71.9 65.3 59 54.3 0.00 75.8 28.2 1.5 NE | 35 4.5 267 598 4.3 124.8 3.7
5/31/21 - 1000 65.6 61.6 70 53.7 0.00 75.0 28.3 1.6 ENE | 74 4.1 268 283 2.7 91.8 3.7
5/31/21 - 0900 61.7 60.4 76 53.5 0.00 75.0 28.3 1.5 SE | 126 4.7 271 108 4.1 74.8 3.7
5/31/21 - 0800 60.6 59.4 79 53.2 0.00 75.1 28.4 1.5 ESE | 108 5.7 271 63 3.3 68.9 3.7
5/31/21 - 0700 59.8 58.5 80 53.1 0.00 76.2 28.4 1.2 ESE | 112 4.9 272 27 3.2 65.5 3.7
5/31/21 - 0600 59.3 58.4 81 52.9 0.00 76.4 28.4 1.6 ESE | 118 4.6 273 1 2.8 61.8 3.7
5/31/21 - 0500 59.3 58.8 80 52.9 0.00 76.9 28.4 1.0 ESE | 107 2.9 273 -11 2.1 60.9 3.7
5/31/21 - 0400 59.0 58.4 81 52.9 0.00 77.1 28.5 1.0 SE | 138 3.1 273 -12 2.8 60.5 3.7
5/31/21 - 0300 58.8 58.0 82 52.8 0.00 77.2 28.5 0.8 ESE | 102 3.2 273 -13 2.0 60.1 3.7
5/31/21 - 0200 58.5 57.4 82 52.5 0.00 77.4 28.5 0.5 E | 92 2.3 273 -16 1.0 59.5 3.7
5/31/21 - 0100 57.7 56.9 84 52.4 0.00 77.5 28.6 1.0 E | 96 3.2 273 -34 1.6 57.6 3.7
5/31/21 - 0000 58.7 56.9 80 51.7 0.00 77.7 28.6 0.6 ENE | 78 2.5 269 -60 2.6 56.4 3.7
5/30/21 - 2300 60.5 58.5 76 51.7 0.00 77.7 28.6 0.9 ENE | 60 4.3 272 -62 2.1 58.1 3.7
5/30/21 - 2200 61.8 60.3 70 51.3 0.00 77.9 28.6 0.5 ENE | 69 2.7 271 -62 1.1 58.0 3.7
5/30/21 - 2100 64.1 61.7 64 50.4 0.00 77.7 28.6 0.6 SSE | 165 3.5 270 -64 2.1 62.8 3.7
5/30/21 - 2000 67.7 63.9 59 51.2 0.00 77.7 28.6 1.4 ESE | 114 3.8 268 -69 2.0 69.1 3.7
5/30/21 - 1900 71.1 67.6 54 52.2 0.00 77.7 28.6 1.8 E | 88 5.1 268 -46 4.1 76.5 3.7
5/30/21 - 1800 74.4 71.0 49 52.8 0.00 77.5 28.6 2.4 ENE | 71 5.8 267 64 3.1 82.5 3.7
5/30/21 - 1700 77.6 74.3 45 53.2 0.00 77.1 28.5 3.0 NE | 54 6.1 266 208 3.1 84.8 3.8
5/30/21 - 1600 79.8 77.1 43 53.7 0.00 76.6 28.4 2.8 ENE | 58 6.8 266 345 3.4 91.7 3.7
5/30/21 - 1500 78.6 76.5 43 53.6 0.00 76.6 28.4 2.3 E | 93 6.1 266 465 5.1 103.5 3.7
5/30/21 - 1400 78.8 74.8 45 53.5 0.00 75.5 28.4 2.7 ESE | 102 9.3 266 552 4.2 117.9 3.7
5/30/21 - 1300 77.8 74.6 45 53.6 0.00 75.6 28.2 2.9 ENE | 76 7.3 266 597 7.4 132.2 3.8
5/30/21 - 1200 77.4 73.1 47 53.2 0.00 75.2 28.2 2.5 ENE | 77 7.1 266 606 3.6 133.3 3.7
5/30/21 - 1100 74.0 70.4 49 51.9 0.00 74.8 28.1 2.0 NE | 34 4.8 266 573 4.5 130.6 3.7
5/30/21 - 1000 71.1 65.6 56 51.3 0.00 77.2 28.1 1.7 NNE | 25 4.7 266 511 3.5 114.6 3.7
5/30/21 - 0900 66.0 61.6 64 51.1 0.00 77.5 28.3 1.4 WSW | 240 5.0 268 235 3.6 90.4 3.7
5/30/21 - 0800 62.6 59.6 71 50.9 0.00 77.3 28.3 1.1 SW | 236 3.9 269 117 2.9 77.0 3.7
5/30/21 - 0700 60.1 58.4 74 50.9 0.00 77.1 28.3 0.5 WSW | 252 2.4 271 48 2.4 67.8 3.7
5/30/21 - 0600 58.6 57.4 77 50.8 0.00 77.1 28.4 0.4 ENE | 70 2.8 271 4 1.4 62.2 3.7
5/30/21 - 0500 57.7 57.0 79 51.0 0.00 76.7 28.4 1.0 ESE | 110 3.9 272 -11 2.4 59.4 3.7
5/30/21 - 0400 57.6 56.9 80 51.2 0.00 76.5 28.4 1.0 ESE | 116 3.8 272 -12 2.1 59.6 3.7
5/30/21 - 0300 57.7 56.9 81 51.3 0.00 76.5 28.4 2.0 SE | 126 5.6 272 -12 2.4 59.6 3.7
5/30/21 - 0200 58.0 57.4 79 51.4 0.00 76.5 28.4 1.4 ENE | 69 3.6 272 -12 2.2 59.6 3.7
5/30/21 - 0100 57.7 56.9 79 50.8 0.00 76.8 28.4 1.3 ESE | 104 4.7 272 -12 2.4 59.4 3.7
5/30/21 - 0000 57.2 55.5 78 49.7 0.00 76.8 28.5 0.7 SE | 129 3.0 272 -36 1.5 56.1 3.7
5/29/21 - 2300 58.2 57.0 74 49.5 0.00 77.1 28.5 0.3 ENE | 58 2.1 273 -60 0.8 54.4 3.7
5/29/21 - 2200 61.0 58.0 67 48.7 0.00 77.0 28.6 0.3 S | 176 2.3 271 -61 1.0 57.8 3.7
5/29/21 - 2100 63.3 60.8 63 49.0 0.00 79.0 28.6 2.3 SW | 224 6.4 270 -65 4.2 59.9 3.7
5/29/21 - 2000 65.1 63.2 59 49.6 0.00 74.2 28.6 2.2 SW | 228 4.5 269 -68 3.6 64.2 3.7
5/29/21 - 1900 70.4 64.9 54 50.1 0.00 77.0 28.5 2.9 WSW | 244 8.3 268 -46 4.8 72.8 3.7
5/29/21 - 1800 72.1 69.6 50 51.3 0.00 76.6 28.6 2.9 SSW | 193 6.4 268 68 5.1 78.6 3.7
5/29/21 - 1700 73.0 71.2 49 51.8 0.00 76.4 28.5 3.8 SSW | 204 7.6 267 217 5.5 83.4 3.8
5/29/21 - 1600 73.0 71.3 49 52.0 0.00 76.1 28.5 4.0 S | 186 9.7 267 356 6.8 88.9 3.8
5/29/21 - 1500 76.3 72.3 46 52.0 0.00 76.4 28.4 3.6 SE | 134 9.7 267 472 6.4 97.8 3.8
5/29/21 - 1400 75.4 70.7 45 51.1 0.00 75.7 28.4 1.9 SW | 220 8.1 267 561 5.9 111.1 3.7
5/29/21 - 1300 71.8 68.2 52 51.1 0.00 75.8 28.4 2.3 S | 170 6.8 267 606 5.6 114.3 3.7
5/29/21 - 1200 69.0 64.4 59 51.8 0.00 75.9 28.4 1.7 W | 262 7.2 267 313 5.5 94.6 3.7
5/29/21 - 1100 65.6 62.0 64 51.3 0.00 76.0 28.4 1.4 E | 81 4.5 268 215 3.4 84.3 3.7
5/29/21 - 1000 62.5 59.7 71 51.4 0.00 76.2 28.4 1.5 ENE | 74 5.7 270 152 3.1 77.2 3.7
5/29/21 - 0900 60.1 58.4 76 51.4 0.00 76.3 28.5 1.9 E | 79 5.6 271 85 3.4 68.4 3.7
5/29/21 - 0800 58.8 57.8 78 51.4 0.00 76.5 28.6 1.7 SE | 124 6.0 271 47 3.1 64.7 3.7
5/29/21 - 0700 58.1 56.9 80 51.4 0.00 76.7 28.6 2.1 SE | 125 5.9 272 26 3.6 62.7 3.7
5/29/21 - 0600 57.6 56.9 82 51.7 0.00 76.8 28.6 1.5 ENE | 70 4.3 273 -2 2.7 60.0 3.7
5/29/21 - 0500 57.7 56.4 81 51.5 0.00 77.2 28.7 0.9 E | 87 4.4 273 -11 2.2 59.2 3.7
5/29/21 - 0400 56.8 55.4 82 50.7 0.00 77.2 28.7 1.2 S | 173 4.3 273 -11 2.9 58.3 3.7
5/29/21 - 0300 56.8 55.3 82 50.6 0.00 77.6 28.7 1.1 SSE | 166 6.1 273 -26 4.3 57.3 3.7
5/29/21 - 0200 57.5 56.4 80 50.8 0.00 78.0 28.7 0.9 NE | 55 2.9 273 -43 1.7 57.6 3.7
5/29/21 - 0100 57.7 56.2 79 50.6 0.00 78.1 28.8 0.5 ENE | 65 2.0 273 -46 1.4 55.9 3.7
5/29/21 - 0000 57.9 56.4 78 50.2 0.00 78.0 28.8 0.1 E | 91 1.7 272 -59 0.0 54.3 3.7
5/28/21 - 2300 59.7 57.7 74 50.5 0.00 78.5 28.8 0.3 ENE | 72 2.0 271 -64 0.4 55.5 3.7
5/28/21 - 2200 60.5 59.1 73 50.9 0.00 78.3 28.8 0.1 E | 99 2.5 271 -64 0.2 57.6 3.7
5/28/21 - 2100 64.0 60.3 68 51.3 0.00 78.5 28.9 0.6 ENE | 58 2.8 270 -70 0.9 63.3 3.7
5/28/21 - 2000 68.0 64.0 57 50.7 0.00 78.3 28.9 1.1 ENE | 68 3.3 268 -75 1.8 67.9 3.7
5/28/21 - 1900 73.8 67.9 48 50.2 0.00 78.1 28.8 2.7 S | 188 6.4 267 -53 4.2 78.1 3.7
5/28/21 - 1800 78.4 73.6 43 51.6 0.00 77.7 28.8 3.4 S | 173 8.2 266 62 5.7 85.4 3.8
5/28/21 - 1700 82.0 77.8 40 52.4 0.00 77.6 28.7 2.5 SSW | 194 6.8 266 205 5.3 90.4 3.8
5/28/21 - 1600 82.5 79.0 38 52.9 0.00 77.5 28.7 1.9 WSW | 253 8.4 266 342 5.3 95.1 3.8
5/28/21 - 1500 80.0 77.2 41 52.6 0.00 76.8 28.6 3.9 S | 174 9.0 266 484 6.3 105.2 3.8
5/28/21 - 1400 82.7 77.1 39 53.3 0.00 76.2 28.6 3.2 E | 81 9.8 266 460 4.6 120.1 3.7
5/28/21 - 1300 80.7 77.3 41 53.4 0.00 76.0 28.5 2.4 ENE | 68 6.7 266 591 4.2 124.1 3.7
5/28/21 - 1200 77.7 74.4 45 53.4 0.00 75.8 28.4 2.9 ENE | 60 6.8 266 613 4.1 125.7 3.7
5/28/21 - 1100 76.5 71.9 47 52.9 0.00 75.6 28.3 2.1 ENE | 62 7.1 265 556 4.6 123.9 3.7
5/28/21 - 1000 73.6 67.0 53 52.6 0.00 75.6 28.3 1.5 N | 4 5.3 266 511 4.1 118.6 3.8
5/28/21 - 0900 66.9 59.9 67 52.4 0.00 75.8 28.4 1.1 NNE | 18 3.7 266 391 3.4 111.9 3.7
5/28/21 - 0800 60.4 57.4 79 52.1 0.00 75.9 28.5 1.4 ESE | 105 3.9 270 148 3.0 74.0 3.7
5/28/21 - 0700 57.6 54.4 86 52.0 0.00 75.9 28.5 1.0 ESE | 114 3.5 272 70 2.2 65.2 3.7
5/28/21 - 0600 54.7 52.3 90 49.9 0.00 76.8 28.6 0.3 SE | 146 2.3 304 16 1.2 54.5 3.7
5/28/21 - 0500 52.9 51.4 88 49.0 0.00 76.9 28.7 0.3 S | 170 1.3 314 -19 0.0 44.5 3.7
5/28/21 - 0400 52.9 51.6 87 48.5 0.00 76.9 28.7 0.4 SSE | 168 1.6 278 -25 0.7 43.8 3.7
5/28/21 - 0300 53.8 52.5 86 48.8 0.00 76.2 28.7 0.2 SSE | 167 1.2 253 -32 0.0 45.1 3.7
5/28/21 - 0200 54.8 52.8 83 48.9 0.00 76.0 28.7 0.4 S | 169 1.8 237 -40 0.9 45.8 3.7
5/28/21 - 0100 56.1 54.3 81 49.6 0.00 75.5 28.8 0.1 S | 179 1.1 258 -51 0.0 47.7 3.7
5/28/21 - 0000 57.8 56.0 77 49.8 0.00 78.1 28.8 0.2 S | 188 1.2 273 -60 0.0 50.3 3.7
5/27/21 - 2300 59.1 57.7 73 49.6 0.00 78.4 28.9 0.4 SE | 128 1.8 272 -65 0.0 53.1 3.7
5/27/21 - 2200 61.6 58.9 69 49.9 0.00 78.3 28.9 0.4 ESE | 109 1.8 270 -68 0.3 57.9 3.7
5/27/21 - 2100 64.0 61.5 64 50.1 0.00 78.3 28.9 0.6 ENE | 64 3.1 269 -72 1.3 59.6 3.7
5/27/21 - 2000 66.0 63.6 60 50.4 0.00 78.4 28.9 1.4 SSE | 159 5.7 268 -75 3.6 65.4 3.7
5/27/21 - 1900 72.6 65.8 52 51.0 0.00 78.1 28.9 2.5 S | 185 5.4 268 -56 3.4 77.3 3.7
5/27/21 - 1800 77.8 72.4 44 52.0 0.00 77.9 28.8 2.6 E | 87 5.4 266 57 3.7 84.1 3.8
5/27/21 - 1700 80.4 77.5 40 52.5 0.00 77.8 28.8 2.4 ENE | 63 8.3 266 206 5.9 88.8 3.8
5/27/21 - 1600 81.0 78.6 39 52.6 0.00 77.2 28.8 2.8 E | 92 6.6 266 347 6.1 94.3 3.8
5/27/21 - 1500 81.5 79.6 38 52.4 0.00 77.0 28.7 2.7 ENE | 57 5.7 266 460 2.9 103.5 3.8
5/27/21 - 1400 80.4 76.5 40 51.9 0.00 76.3 28.7 2.8 ESE | 102 9.1 266 547 5.2 118.8 3.7
5/27/21 - 1300 78.6 75.3 41 51.8 0.00 76.3 28.5 3.3 ENE | 65 9.3 266 598 6.3 133.4 3.7
5/27/21 - 1200 78.7 73.4 42 51.5 0.00 75.7 28.5 2.5 ENE | 74 6.7 265 607 8.5 136.3 3.7
5/27/21 - 1100 74.6 72.0 45 50.8 0.00 75.9 28.5 2.1 NE | 52 7.6 264 573 4.5 136.3 3.7
5/27/21 - 1000 73.0 67.9 50 50.5 0.00 75.9 28.5 1.8 NNE | 29 5.4 265 504 4.0 121.4 3.7
5/27/21 - 0900 68.9 64.3 55 50.1 0.00 76.2 28.5 1.7 ENE | 59 4.7 266 401 3.8 115.8 3.7
5/27/21 - 0800 65.0 61.3 63 49.8 0.00 76.1 28.6 1.6 ENE | 58 5.6 266 136 2.9 94.6 3.7
5/27/21 - 0700 61.2 58.8 70 50.0 0.00 76.3 28.7 1.9 SE | 131 5.5 269 80 3.8 73.0 3.7
5/27/21 - 0600 59.1 58.2 74 50.3 0.00 76.8 28.7 1.3 SSE | 154 3.8 271 6 2.1 62.7 3.7
5/27/21 - 0500 58.9 58.2 77 51.3 0.00 76.8 28.7 1.6 SE | 130 4.8 271 -13 3.3 60.6 3.7
5/27/21 - 0400 59.2 58.5 77 51.7 0.00 76.9 28.7 1.4 SE | 130 4.4 271 -13 3.1 60.6 3.7
5/27/21 - 0300 58.6 57.6 80 51.9 0.00 74.9 28.7 1.3 ESE | 107 4.3 271 -13 2.8 60.6 3.7
5/27/21 - 0200 58.2 57.6 80 51.9 0.00 76.4 28.8 1.4 ESE | 106 5.0 271 -13 2.3 60.6 3.7
5/27/21 - 0100 58.2 56.1 81 51.5 0.00 77.2 28.8 0.9 SE | 133 2.7 271 -14 1.4 60.3 3.7
5/27/21 - 0000 58.0 56.0 82 51.1 0.00 78.6 28.8 1.2 S | 176 3.1 273 -54 1.8 56.2 3.7
5/26/21 - 2300 60.8 58.0 77 52.5 0.00 79.3 28.8 0.9 ENE | 66 2.8 272 -69 1.9 58.8 3.7
5/26/21 - 2200 64.0 60.5 71 52.8 0.00 80.6 28.9 1.0 NE | 55 2.8 271 -72 1.3 60.3 3.7
5/26/21 - 2100 66.1 63.4 61 50.8 0.00 81.2 28.9 0.7 ESE | 114 3.2 269 -73 1.3 63.3 3.7
5/26/21 - 2000 69.6 65.8 55 51.0 0.00 81.2 28.9 1.4 ESE | 120 5.2 268 -80 1.8 68.7 3.7
5/26/21 - 1900 73.3 69.3 48 50.8 0.00 80.7 28.9 1.6 E | 82 5.2 267 -62 2.5 77.5 3.7
5/26/21 - 1800 75.7 72.8 41 49.3 0.00 80.5 28.8 2.8 ESE | 109 7.8 266 60 4.1 83.3 3.8
5/26/21 - 1700 77.3 74.9 35 46.3 0.00 80.2 28.8 3.7 SE | 138 8.3 266 213 5.7 85.5 3.8
5/26/21 - 1600 77.7 75.8 34 46.5 0.00 74.5 28.7 3.9 ESE | 119 9.7 264 352 3.9 89.0 3.8
5/26/21 - 1500 79.8 76.8 33 46.5 0.00 77.0 28.7 4.5 ESE | 115 11.0 265 472 6.2 100.9 3.8
5/26/21 - 1400 79.4 76.6 37 50.1 0.00 76.9 28.6 4.2 SE | 143 10.1 265 553 6.1 120.8 3.8
5/26/21 - 1300 79.6 76.4 40 51.7 0.00 77.1 28.5 3.9 SSE | 159 10.3 265 603 6.4 134.1 3.8
5/26/21 - 1200 79.2 76.7 40 51.3 0.00 75.2 28.4 3.6 SSE | 158 8.7 264 611 6.4 136.3 3.8
5/26/21 - 1100 78.5 75.9 36 48.0 0.00 75.2 28.4 3.5 ENE | 62 8.5 264 576 4.9 128.7 3.7
5/26/21 - 1000 76.7 72.2 41 48.9 0.00 75.3 28.4 3.1 E | 84 8.0 264 509 4.4 121.1 3.8
5/26/21 - 0900 72.9 69.2 45 48.4 0.00 75.2 28.5 2.7 ENE | 61 6.3 264 409 3.0 117.8 3.7
5/26/21 - 0800 69.2 64.7 56 50.4 0.00 75.2 28.6 2.2 ENE | 61 5.4 266 110 3.2 95.0 3.7
5/26/21 - 0700 64.8 60.9 65 50.5 0.00 75.6 28.6 0.9 ESE | 102 3.4 269 -19 2.8 64.1 3.7
5/26/21 - 0600 61.0 57.2 72 50.1 0.00 76.2 28.6 0.2 SE | 146 1.8 270 -12 0.0 61.7 3.7
5/26/21 - 0500 58.8 57.2 74 49.5 0.00 76.1 28.7 0.4 SSE | 165 1.7 271 -49 0.8 56.6 3.7
5/26/21 - 0400 59.6 58.5 71 49.6 0.00 76.4 28.7 0.5 S | 172 2.5 270 -39 1.5 56.8 3.7
5/26/21 - 0300 61.1 59.5 68 49.7 0.00 76.5 28.7 0.4 SSE | 156 2.0 269 -42 1.0 58.4 3.7
5/26/21 - 0200 61.6 60.5 66 49.4 0.00 76.7 28.7 0.5 E | 101 3.2 269 -47 1.3 58.2 3.7
5/26/21 - 0100 63.9 61.5 62 49.4 0.00 77.0 28.7 1.0 NE | 47 2.8 269 -62 1.2 59.2 3.7
5/26/21 - 0000 65.1 63.8 57 48.9 0.00 77.0 28.8 0.9 ENE | 70 3.5 268 -60 1.6 60.2 3.7
5/25/21 - 2300 65.8 64.6 49 45.6 0.00 76.9 28.8 0.2 ESE | 111 1.9 267 -60 0.4 57.2 3.7
5/25/21 - 2200 67.5 64.9 52 47.5 0.00 77.2 28.8 0.3 SE | 145 2.2 267 -68 0.0 59.1 3.7
5/25/21 - 2100 70.8 67.4 50 49.3 0.00 77.0 28.8 0.1 E | 99 1.2 266 -72 0.5 64.6 3.7
5/25/21 - 2000 75.9 70.6 43 50.2 0.00 77.0 28.8 0.4 NE | 49 1.8 266 -75 0.1 76.1 3.7
5/25/21 - 1900 80.8 75.8 35 47.9 0.00 76.5 28.7 1.1 NE | 56 3.8 265 -49 1.5 84.2 3.8
5/25/21 - 1800 86.3 80.8 19 37.3 0.00 76.6 28.7 1.8 SSW | 199 4.8 263 -32 3.6 98.8 3.8
5/25/21 - 1700 86.8 84.6 18 36.6 0.00 76.2 28.7 4.6 SW | 220 8.7 262 178 6.4 100.1 3.8
5/25/21 - 1600 88.2 85.0 16 34.9 0.00 75.8 28.6 6.0 SW | 222 12.1 262 185 8.1 104.1 3.8
5/25/21 - 1500 89.1 86.9 15 35.1 0.00 75.4 28.5 5.7 SW | 223 12.8 262 286 8.9 109.5 3.8
5/25/21 - 1400 90.3 88.3 17 38.7 0.00 75.0 28.4 6.5 SW | 218 12.0 262 531 8.3 125.7 3.8
5/25/21 - 1300 90.3 87.2 17 38.0 0.00 74.4 28.4 5.2 S | 178 12.1 262 517 7.3 127.5 3.8
5/25/21 - 1200 93.0 87.6 17 39.3 0.00 74.3 28.3 4.7 SSE | 167 12.7 262 493 8.8 145.1 3.8
5/25/21 - 1100 91.8 87.8 16 37.4 0.00 74.0 28.2 2.0 NE | 41 6.6 262 560 4.2 142.2 3.8
5/25/21 - 1000 89.1 84.3 19 39.2 0.00 73.8 28.2 1.4 ENE | 72 5.9 262 502 3.2 133.8 3.8
5/25/21 - 0900 84.7 80.0 25 42.4 0.00 74.2 28.3 1.3 NE | 52 3.3 263 374 2.1 126.4 3.7
5/25/21 - 0800 80.0 68.8 35 43.7 0.00 74.4 28.4 0.6 NNE | 21 2.2 263 116 1.2 107.5 3.7
5/25/21 - 0700 68.7 60.4 44 42.4 0.00 74.6 28.5 0.3 N | 10 2.0 266 -21 1.4 59.9 3.7
5/25/21 - 0600 60.6 54.5 56 41.8 0.00 74.9 28.5 0.3 SSE | 149 1.7 267 -35 0.5 51.8 3.7
5/25/21 - 0500 56.8 54.6 57 40.5 0.00 75.2 28.6 0.5 SSE | 168 2.2 268 -55 0.8 46.0 3.7
5/25/21 - 0400 58.3 56.2 53 40.2 0.00 75.3 28.6 0.5 SSE | 161 1.7 267 -57 0.5 47.9 3.7
5/25/21 - 0300 59.4 57.7 50 39.6 0.00 75.7 28.7 0.5 SSE | 166 1.8 267 -58 1.2 48.9 3.7
5/25/21 - 0200 61.4 59.3 45 39.1 0.00 72.6 28.7 0.3 SSE | 155 2.0 266 -58 1.3 51.5 3.7
5/25/21 - 0100 63.1 60.5 43 38.9 0.00 73.1 28.7 0.8 SSE | 161 2.7 266 -59 1.2 52.4 3.7
5/25/21 - 0000 64.8 62.6 39 38.1 0.00 73.9 28.7 0.5 S | 173 2.3 266 -61 1.1 55.8 3.7
5/24/21 - 2300 67.6 64.5 35 37.7 0.00 74.8 28.7 0.5 SSE | 166 2.7 265 -63 1.1 57.0 3.7
5/24/21 - 2200 70.0 66.2 33 38.0 0.00 75.5 28.7 0.6 SSE | 163 2.5 265 -65 1.5 60.9 3.7
5/24/21 - 2100 74.6 69.9 26 35.9 0.00 77.4 28.7 0.9 S | 187 3.1 264 -74 1.2 67.2 3.7
5/24/21 - 2000 79.2 74.7 21 33.5 0.00 75.6 28.7 2.4 SW | 221 6.4 263 -87 4.8 75.8 3.7
5/24/21 - 1900 84.1 79.0 17 32.0 0.00 77.4 28.7 2.9 W | 278 8.1 263 -70 5.9 84.5 3.8
5/24/21 - 1800 86.6 83.3 14 30.4 0.00 76.8 28.6 5.1 WSW | 252 11.3 262 45 7.0 92.3 3.8
5/24/21 - 1700 88.0 86.5 14 31.6 0.00 74.5 28.6 6.0 WSW | 243 11.3 262 198 9.1 95.5 3.8
5/24/21 - 1600 91.5 87.7 12 30.8 0.00 73.0 28.4 5.5 WSW | 248 12.0 262 336 7.7 103.1 3.8
5/24/21 - 1500 90.6 88.9 11 28.6 0.00 75.4 28.3 5.4 S | 180 12.8 262 456 8.1 112.0 3.8
5/24/21 - 1400 95.2 89.4 11 29.0 0.00 75.4 28.3 4.9 S | 176 11.9 262 532 7.6 133.8 3.8
5/24/21 - 1300 93.6 90.0 10 28.8 0.00 75.5 28.1 2.9 S | 176 10.1 261 578 6.7 153.9 3.8
5/24/21 - 1200 93.2 89.4 11 29.5 0.00 75.6 28.0 1.7 NW | 326 6.5 261 588 5.5 156.6 3.8
5/24/21 - 1100 90.9 87.9 12 31.0 0.00 75.4 28.0 1.9 NNW | 340 7.1 261 561 7.2 150.7 3.8
5/24/21 - 1000 88.8 83.0 16 34.4 0.00 71.8 28.0 1.7 NNE | 20 6.1 261 497 3.4 130.8 3.7
5/24/21 - 0900 83.7 75.4 22 37.4 0.00 72.2 28.1 1.0 WNW | 298 3.6 262 406 2.8 125.2 3.7
5/24/21 - 0800 75.3 64.2 39 42.7 0.00 72.6 28.2 0.9 NNE | 27 4.0 264 118 3.1 98.3 3.7
5/24/21 - 0700 64.3 55.2 52 42.3 0.00 72.8 28.2 0.3 NNE | 21 2.0 269 -16 0.0 54.5 3.7
5/24/21 - 0600 55.2 49.6 64 40.3 0.00 73.1 28.2 0.2 SSE | 162 1.9 269 -38 1.3 47.2 3.7
5/24/21 - 0500 50.6 49.2 69 40.1 0.00 73.4 28.3 0.6 SSE | 151 2.4 270 -53 1.2 44.0 3.7
5/24/21 - 0400 50.9 49.6 69 40.2 0.00 73.8 28.4 0.6 S | 174 2.4 271 -56 2.0 44.2 3.7
5/24/21 - 0300 51.4 50.0 66 40.1 0.00 73.8 28.4 0.8 SSE | 164 2.7 270 -58 2.0 44.7 3.7
5/24/21 - 0200 53.1 50.8 64 40.2 0.00 74.2 28.4 0.5 SSE | 164 2.3 269 -59 1.7 45.1 3.7
5/24/21 - 0100 54.1 52.5 64 41.6 0.00 74.3 28.4 0.6 S | 173 2.5 269 -61 0.9 45.2 3.7
5/24/21 - 0000 55.0 53.6 63 41.9 0.00 74.4 28.4 0.6 S | 178 2.5 269 -64 1.4 46.6 3.7
5/23/21 - 2300 58.3 55.0 58 41.6 0.00 74.5 28.5 0.7 S | 185 2.9 268 -65 1.5 49.1 3.7
5/23/21 - 2200 59.8 58.0 52 41.2 0.00 74.5 28.5 0.4 S | 169 2.5 267 -69 0.8 52.3 3.7
5/23/21 - 2100 64.7 59.4 41 38.3 0.00 74.7 28.5 0.6 S | 184 3.1 266 -74 2.2 60.2 3.7
5/23/21 - 2000 68.2 64.6 33 36.6 0.00 74.7 28.5 1.7 SW | 235 4.3 266 -83 2.9 66.4 3.7
5/23/21 - 1900 73.1 67.9 23 31.2 0.00 74.3 28.5 1.6 WNW | 296 4.7 264 -66 4.8 76.0 3.7
5/23/21 - 1800 76.1 73.0 19 29.5 0.00 73.8 28.4 1.5 NW | 323 7.2 264 48 5.3 78.7 3.8
5/23/21 - 1700 77.9 75.4 19 30.8 0.00 73.8 28.4 2.2 NW | 308 7.6 264 200 5.7 84.0 3.8
5/23/21 - 1600 77.4 75.2 19 30.4 0.00 73.3 28.4 4.4 WSW | 253 11.2 263 344 6.9 90.4 3.8
5/23/21 - 1500 77.8 75.4 20 32.6 0.00 72.7 28.3 5.1 WSW | 238 11.3 263 466 8.1 98.2 3.7
5/23/21 - 1400 77.8 75.8 21 34.2 0.00 72.6 28.3 5.1 WSW | 253 11.9 264 551 8.0 110.1 3.7
5/23/21 - 1300 78.6 75.1 22 35.0 0.00 71.9 28.1 5.3 WSW | 257 13.7 264 600 9.0 121.7 3.8
5/23/21 - 1200 76.4 74.4 24 36.2 0.00 71.5 28.1 5.5 SW | 227 13.8 264 612 8.8 126.2 3.7
5/23/21 - 1100 76.6 74.4 23 35.4 0.00 71.4 28.0 3.1 WSW | 241 9.8 263 573 7.2 126.9 3.7
5/23/21 - 1000 76.4 69.6 27 36.6 0.00 71.6 28.0 1.6 N | 8 6.1 263 507 4.5 115.8 3.7
5/23/21 - 0900 70.3 63.6 39 41.5 0.00 71.6 28.1 1.6 NE | 34 5.2 264 410 3.7 113.7 3.7
5/23/21 - 0800 63.7 56.5 54 42.8 0.00 71.9 28.2 0.9 NE | 38 3.2 266 127 2.1 89.5 3.7
5/23/21 - 0700 56.6 50.7 67 43.1 0.00 72.4 28.2 0.6 NNW | 339 2.6 270 -7 2.0 51.8 3.7
5/23/21 - 0600 50.8 45.9 82 42.5 0.00 72.5 28.3 0.5 SSE | 151 2.1 273 -12 0.8 43.0 3.7
5/23/21 - 0500 46.7 45.4 83 41.3 0.00 72.8 28.3 0.1 S | 184 1.4 253 -35 0.0 38.2 3.7
5/23/21 - 0400 47.2 46.0 82 41.3 0.00 74.6 28.3 0.4 SSE | 162 1.6 242 -47 0.8 39.0 3.7
5/23/21 - 0300 47.9 46.8 79 41.1 0.00 73.9 28.4 0.6 SSE | 160 2.6 267 -55 0.5 38.8 3.7
5/23/21 - 0200 49.0 47.4 76 40.9 0.00 73.7 28.4 0.4 SSE | 162 1.8 272 -58 1.0 40.2 3.7
5/23/21 - 0100 50.7 48.9 72 41.0 0.00 73.9 28.4 0.7 S | 175 2.0 272 -59 0.9 42.1 3.7
5/23/21 - 0000 51.9 50.4 69 41.4 0.00 73.8 28.5 0.7 S | 175 3.0 270 -62 1.8 43.0 3.7
5/22/21 - 2300 53.9 51.8 65 41.6 0.00 74.1 28.5 0.5 S | 182 2.2 270 -63 0.1 48.4 3.7
5/22/21 - 2200 57.5 53.7 57 41.3 0.00 74.0 28.6 1.2 SW | 214 4.9 269 -69 3.0 53.1 3.7
5/22/21 - 2100 59.5 57.2 55 42.0 0.00 74.2 28.5 2.3 SW | 222 5.9 268 -73 3.9 56.0 3.7
5/22/21 - 2000 61.4 59.1 49 41.0 0.00 74.0 28.6 2.5 WSW | 241 5.5 268 -77 4.1 59.9 3.7
5/22/21 - 1900 65.3 61.3 42 39.9 0.00 74.1 28.6 3.4 WSW | 243 6.9 266 -60 4.4 68.6 3.7
5/22/21 - 1800 67.7 64.9 37 39.2 0.00 73.8 28.5 4.1 WSW | 250 9.1 266 51 6.0 75.2 3.7
5/22/21 - 1700 68.8 66.9 36 39.8 0.00 73.5 28.5 4.6 SW | 233 10.1 266 205 7.0 80.5 3.7
5/22/21 - 1600 69.2 67.0 35 39.7 0.00 73.2 28.5 5.4 SW | 225 12.7 266 358 8.0 85.7 3.8
5/22/21 - 1500 68.7 66.2 38 41.0 0.00 72.9 28.4 5.1 SSW | 206 11.6 266 474 8.4 88.2 3.8
5/22/21 - 1400 67.4 65.7 41 42.2 0.00 72.6 28.4 5.9 S | 182 11.9 266 550 8.8 103.2 3.7
5/22/21 - 1300 68.8 65.7 41 42.6 0.00 72.2 28.4 5.6 SSE | 166 14.1 266 588 8.6 107.1 3.8
5/22/21 - 1200 70.0 65.5 38 41.1 0.00 72.0 28.3 3.4 ESE | 122 10.9 266 497 7.0 120.8 3.7
5/22/21 - 1100 69.1 63.8 39 40.8 0.00 71.9 28.2 2.0 NE | 55 5.8 264 581 4.2 120.5 3.7
5/22/21 - 1000 64.1 60.5 46 41.2 0.00 71.8 28.2 2.2 NE | 49 7.6 265 508 4.5 108.4 3.7
5/22/21 - 0900 61.4 56.4 51 41.3 0.00 72.1 28.3 2.2 ENE | 57 7.5 265 412 3.1 103.5 3.7
5/22/21 - 0800 56.6 53.8 63 42.7 0.00 72.4 28.4 1.6 NE | 41 5.2 268 99 3.7 73.1 3.7
5/22/21 - 0700 53.8 48.3 78 44.8 0.00 72.5 28.4 0.7 NNE | 22 3.4 271 31 2.0 53.3 3.7
5/22/21 - 0600 48.4 45.3 88 43.0 0.00 73.0 28.4 0.2 SSE | 147 1.5 250 -1 0.0 43.4 3.7
5/22/21 - 0500 46.2 44.6 86 41.4 0.00 73.1 28.4 0.5 SSE | 156 2.5 254 -31 0.5 37.4 3.7
5/22/21 - 0400 46.5 45.7 85 41.8 0.00 73.2 28.5 0.6 S | 176 1.8 240 -41 0.0 38.2 3.7
5/22/21 - 0300 48.1 46.0 82 41.7 0.00 73.7 28.5 0.5 S | 174 1.8 244 -51 0.7 40.9 3.7
5/22/21 - 0200 48.5 47.4 78 41.4 0.00 73.6 28.6 0.3 S | 178 2.3 273 -50 0.9 41.7 3.7
5/22/21 - 0100 50.0 48.3 75 41.3 0.00 74.0 28.6 0.6 S | 176 2.2 271 -60 1.2 45.4 3.7
5/22/21 - 0000 52.0 49.8 71 42.0 0.00 74.2 28.6 0.5 E | 99 3.3 271 -65 2.0 49.2 3.7
5/21/21 - 2300 52.8 51.7 71 43.2 0.00 74.2 28.7 0.7 E | 83 3.8 271 -65 2.6 51.4 3.7
5/21/21 - 2200 54.0 52.6 74 45.2 0.00 74.4 28.7 1.8 ENE | 75 7.1 271 -64 4.6 54.2 3.7
5/21/21 - 2100 57.5 53.9 69 45.5 0.00 74.6 28.7 2.1 ENE | 58 6.8 270 -75 3.6 56.0 3.7
5/21/21 - 2000 61.7 57.4 47 39.4 0.00 74.2 28.7 2.4 NE | 55 7.7 268 -83 5.2 59.2 3.7
5/21/21 - 1900 65.4 61.6 32 33.3 0.00 74.5 28.7 4.1 SW | 225 11.9 266 -68 7.4 67.8 3.7
5/21/21 - 1800 68.6 65.2 29 33.1 0.00 74.1 28.7 5.4 WSW | 241 10.5 265 51 7.3 74.6 3.7
5/21/21 - 1700 71.5 67.3 25 32.6 0.00 73.9 28.7 3.8 W | 268 12.2 264 204 7.9 77.9 3.8
5/21/21 - 1600 71.2 69.2 25 33.1 0.00 73.4 28.6 3.6 WNW | 300 11.4 264 350 8.3 83.2 3.8
5/21/21 - 1500 74.2 68.9 24 33.0 0.00 72.8 28.6 4.0 WNW | 286 12.6 264 468 9.4 92.3 3.8
5/21/21 - 1400 73.0 68.4 23 31.3 0.00 72.7 28.5 5.3 WSW | 257 11.7 264 561 8.8 103.1 3.7
5/21/21 - 1300 71.2 66.6 23 29.5 0.00 72.4 28.5 5.8 W | 264 14.2 264 615 9.8 115.6 3.8
5/21/21 - 1200 68.3 65.8 23 27.6 0.00 72.0 28.4 6.6 WSW | 239 12.7 264 627 9.4 119.3 3.8
5/21/21 - 1100 67.9 65.6 23 27.7 0.00 72.1 28.4 5.5 WSW | 254 11.4 263 586 9.0 114.2 3.7
5/21/21 - 1000 66.2 63.6 25 27.7 0.00 72.0 28.4 5.7 WSW | 239 11.9 263 519 8.4 107.3 3.7
5/21/21 - 0900 64.9 61.1 30 31.1 0.00 72.5 28.4 5.0 SW | 229 9.9 264 411 7.5 106.2 3.7
5/21/21 - 0800 61.5 57.0 42 35.6 0.00 72.8 28.5 1.8 SW | 221 6.8 266 149 5.1 88.0 3.7
5/21/21 - 0700 57.1 51.8 66 42.7 0.00 73.0 28.6 2.2 WSW | 240 5.0 270 -26 3.7 54.4 3.7
5/21/21 - 0600 51.9 46.4 79 42.3 0.00 73.3 28.6 1.7 SW | 225 5.9 272 -13 4.1 47.7 3.7
5/21/21 - 0500 46.6 45.0 85 41.6 0.00 73.5 28.6 0.8 SSE | 167 3.1 286 -31 1.9 36.7 3.7
5/21/21 - 0400 47.2 45.6 84 41.8 0.00 74.0 28.7 0.4 SSE | 151 1.5 252 -42 0.0 38.4 3.7
5/21/21 - 0300 48.4 46.5 81 41.7 0.00 74.2 28.7 0.3 S | 177 1.5 230 -55 0.4 39.6 3.7
5/21/21 - 0200 50.0 48.2 77 42.4 0.00 74.4 28.8 1.0 S | 174 2.6 271 -62 1.5 41.7 3.7
5/21/21 - 0100 51.4 49.8 75 43.1 0.00 72.0 28.8 1.7 S | 190 3.0 273 -64 1.7 41.9 3.7
5/21/21 - 0000 52.6 49.5 75 43.7 0.00 73.0 28.9 1.3 SSW | 202 2.5 272 -65 1.3 46.4 3.7
5/20/21 - 2300 54.5 52.5 70 44.3 0.00 74.8 28.9 1.1 E | 98 6.2 271 -72 2.3 52.8 3.7
5/20/21 - 2200 56.2 54.4 68 44.7 0.00 75.1 28.9 1.7 NE | 55 5.6 270 -74 3.3 54.3 3.7
5/20/21 - 2100 59.6 56.0 52 40.8 0.00 76.4 28.9 1.4 NE | 42 4.2 269 -76 1.6 54.5 3.7
5/20/21 - 2000 63.7 59.4 45 40.0 0.00 75.2 28.9 1.4 SW | 214 5.5 267 -79 3.9 62.4 3.7
5/20/21 - 1900 68.2 63.5 37 38.8 0.00 75.0 28.9 3.2 WSW | 256 7.7 267 -65 5.3 71.0 3.7
5/20/21 - 1800 70.2 68.2 35 39.8 0.00 74.8 28.9 4.1 SW | 235 10.1 266 53 6.7 78.0 3.7
5/20/21 - 1700 70.8 68.6 39 43.7 0.00 74.8 28.9 4.2 SW | 215 11.9 266 218 6.4 82.3 3.7
5/20/21 - 1600 69.9 67.4 45 46.7 0.00 74.5 28.9 5.1 SSE | 158 10.8 266 242 8.0 92.7 3.7
5/20/21 - 1500 71.4 67.5 46 48.0 0.00 74.2 28.9 5.3 SE | 142 11.8 266 559 6.6 97.5 3.8
5/20/21 - 1400 69.2 67.1 49 48.1 0.00 73.9 28.9 5.4 SSE | 164 10.7 266 301 7.6 106.4 3.7
5/20/21 - 1300 71.8 68.8 46 48.4 0.00 73.8 28.8 4.8 SSE | 158 11.4 266 565 8.0 113.8 3.8
5/20/21 - 1200 71.5 68.3 47 48.2 0.00 73.6 28.8 4.5 SSE | 152 10.1 266 562 7.4 122.4 3.7
5/20/21 - 1100 70.9 66.3 47 47.6 0.00 73.7 28.7 2.5 ESE | 103 6.7 266 519 5.2 112.5 3.7
5/20/21 - 1000 66.6 62.9 57 48.3 0.00 73.7 28.8 2.4 S | 181 7.6 266 200 5.2 86.6 3.7
5/20/21 - 0900 65.6 62.8 57 48.4 0.00 74.0 28.8 2.1 SSE | 149 5.8 268 218 3.8 94.2 3.7
5/20/21 - 0800 64.5 59.6 62 48.0 0.00 74.2 28.8 0.8 N | 4 2.7 266 200 2.8 90.3 3.7
5/20/21 - 0700 60.1 55.0 65 45.9 0.00 74.2 28.9 0.3 N | 3 2.5 269 60 1.6 66.6 3.7
5/20/21 - 0600 55.0 52.2 74 44.9 0.00 74.4 28.9 0.5 SSE | 168 2.3 271 -22 1.4 53.5 3.7
5/20/21 - 0500 53.2 51.5 74 44.6 0.00 74.8 28.9 0.2 S | 174 1.5 272 -31 0.0 50.1 3.7
5/20/21 - 0400 51.7 50.2 81 45.3 0.00 75.3 29.0 0.2 SSE | 154 1.1 273 -31 0.0 47.0 3.7
5/20/21 - 0300 51.7 50.4 81 45.4 0.00 75.2 29.0 0.2 SSE | 156 1.1 246 -52 0.0 45.2 3.7
5/20/21 - 0200 53.0 51.4 79 45.9 0.00 75.6 29.0 0.5 S | 179 1.7 262 -58 1.2 47.4 3.7
5/20/21 - 0100 55.5 52.7 75 46.1 0.00 75.5 29.1 0.2 SSE | 152 1.4 266 -62 0.0 51.7 3.7
5/20/21 - 0000 57.1 55.4 68 45.9 0.00 75.9 29.1 0.6 ENE | 72 2.3 268 -66 1.1 52.8 3.7
5/19/21 - 2300 58.3 56.6 63 45.0 0.00 75.9 29.1 0.4 E | 79 2.9 270 -67 1.3 54.5 3.7
5/19/21 - 2200 59.9 58.2 61 45.7 0.00 76.2 29.1 0.9 ENE | 57 2.8 269 -71 1.0 56.6 3.7
5/19/21 - 2100 62.5 59.7 56 45.4 0.00 76.0 29.2 1.2 NE | 56 3.9 268 -74 2.0 59.3 3.7
5/19/21 - 2000 67.0 62.3 47 43.9 0.00 76.2 29.2 1.2 NNE | 26 3.6 268 -78 1.6 64.7 3.7
5/19/21 - 1900 72.8 66.9 47 48.0 0.00 76.0 29.1 1.0 NNE | 17 3.8 267 -61 1.9 74.1 3.7
5/19/21 - 1800 73.7 72.0 44 49.7 0.00 75.8 29.1 2.5 W | 261 7.4 267 50 4.8 79.2 3.7
5/19/21 - 1700 75.1 72.2 49 52.8 0.00 75.5 29.1 4.3 S | 190 8.6 267 203 6.0 85.1 3.8
5/19/21 - 1600 76.3 74.2 45 52.4 0.00 75.0 29.0 4.5 S | 186 9.6 267 347 6.5 91.2 3.8
5/19/21 - 1500 76.6 74.8 45 52.4 0.00 74.4 29.0 4.1 S | 171 8.6 266 469 6.3 99.0 3.7
5/19/21 - 1400 76.6 74.8 45 53.2 0.00 74.1 28.9 4.5 S | 173 10.8 266 554 7.9 115.6 3.7
5/19/21 - 1300 78.2 74.8 45 53.4 0.00 73.6 28.8 3.4 SE | 146 9.7 266 597 7.3 127.3 3.8
5/19/21 - 1200 77.3 73.2 47 53.5 0.00 73.3 28.8 2.5 NE | 40 6.9 266 604 4.5 127.3 3.7
5/19/21 - 1100 73.7 69.1 52 53.2 0.00 73.4 28.7 2.2 NE | 38 6.2 266 576 3.6 126.2 3.7
5/19/21 - 1000 69.3 65.8 59 52.6 0.00 73.4 28.7 2.2 NE | 49 5.2 266 506 3.1 108.8 3.7
5/19/21 - 0900 65.8 60.5 67 52.1 0.00 73.5 28.8 1.5 NNE | 20 4.9 267 350 3.7 101.8 3.7
5/19/21 - 0800 60.8 57.9 76 51.7 0.00 73.5 28.9 1.1 ESE | 112 4.6 271 141 2.7 73.4 3.7
5/19/21 - 0700 58.2 54.2 83 51.4 0.00 73.8 28.9 0.6 ENE | 66 2.4 313 88 1.4 67.9 3.7
5/19/21 - 0600 54.2 51.4 90 49.7 0.00 74.0 28.9 0.3 SE | 143 2.1 333 17 1.0 55.2 3.7
5/19/21 - 0500 52.4 51.2 90 48.9 0.00 74.4 29.0 0.3 S | 175 1.8 343 -18 0.0 44.3 3.7
5/19/21 - 0400 52.7 51.5 89 49.1 0.00 74.6 29.0 0.4 SSE | 163 1.6 320 -23 0.0 44.5 3.7
5/19/21 - 0300 53.4 51.7 87 49.0 0.00 74.9 29.0 0.2 SSE | 168 1.5 278 -28 0.0 45.3 3.7
5/19/21 - 0200 54.3 53.0 85 49.3 0.00 75.2 29.0 0.3 SSE | 167 1.5 246 -37 0.7 47.2 3.7
5/19/21 - 0100 55.6 53.7 83 49.6 0.00 75.3 29.1 0.3 SSE | 168 1.7 231 -49 0.8 48.8 3.7
5/19/21 - 0000 56.8 55.1 80 50.1 0.00 75.7 29.1 0.4 S | 179 2.7 269 -58 1.5 49.6 3.7
5/18/21 - 2300 58.2 56.3 78 50.4 0.00 75.4 29.2 0.3 S | 171 2.3 273 -64 1.4 51.2 3.7
5/18/21 - 2200 61.1 58.0 72 50.6 0.00 75.8 29.2 0.6 S | 184 2.5 272 -69 1.4 57.4 3.7
5/18/21 - 2100 63.2 61.0 67 50.9 0.00 75.5 29.2 0.5 E | 81 2.8 271 -75 1.6 60.3 3.7
5/18/21 - 2000 67.4 63.2 62 51.5 0.00 75.7 29.1 1.4 NE | 50 3.4 269 -78 1.7 65.5 3.7
5/18/21 - 1900 71.1 67.2 54 52.0 0.00 75.5 29.1 1.3 NNE | 29 4.1 268 -63 1.6 75.4 3.7
5/18/21 - 1800 75.3 70.9 49 52.7 0.00 75.2 29.1 2.1 NE | 44 4.3 267 47 2.9 81.7 3.8
5/18/21 - 1700 78.0 74.8 44 52.8 0.00 74.8 29.0 2.6 NE | 48 5.9 266 196 2.8 85.2 3.8
5/18/21 - 1600 80.9 77.3 41 53.4 0.00 74.2 29.0 3.0 NE | 44 6.3 266 336 3.0 91.0 3.8
5/18/21 - 1500 82.5 79.6 37 53.2 0.00 73.8 28.9 3.0 NE | 47 6.2 266 455 3.4 99.1 3.8
5/18/21 - 1400 82.4 79.6 37 52.8 0.00 71.0 28.9 3.2 NE | 56 7.8 266 543 4.4 116.1 3.7
5/18/21 - 1300 82.7 79.6 36 51.6 0.00 72.6 28.8 2.3 NE | 48 7.4 266 592 4.6 130.4 3.7
5/18/21 - 1200 80.6 75.5 38 50.5 0.00 72.4 28.7 1.7 NE | 37 5.5 265 606 4.1 133.7 3.7
5/18/21 - 1100 76.5 71.6 44 50.2 0.00 72.4 28.7 1.9 WNW | 302 7.4 265 574 6.1 126.3 3.7
5/18/21 - 1000 72.3 66.9 52 50.6 0.00 72.2 28.7 1.5 N | 356 4.8 266 504 4.0 115.7 3.7
5/18/21 - 0900 66.9 62.3 59 50.3 0.00 72.6 28.7 1.6 SSW | 209 6.2 266 393 5.6 106.6 3.7
5/18/21 - 0800 62.3 59.5 68 50.2 0.00 72.4 28.7 1.6 SW | 227 4.8 268 212 3.5 92.7 3.7
5/18/21 - 0700 59.6 58.0 74 50.3 0.00 72.6 28.7 1.1 WSW | 258 3.7 270 49 3.2 66.8 3.7
5/18/21 - 0600 58.2 56.8 76 50.0 0.00 72.3 28.8 0.8 WSW | 240 4.0 271 1 3.2 61.5 3.7
5/18/21 - 0500 57.3 56.8 78 50.2 0.00 72.8 28.8 0.8 SSW | 212 3.7 272 -23 2.6 59.2 3.7
5/18/21 - 0400 57.2 56.4 77 49.9 0.00 73.2 28.8 1.2 SSW | 209 3.1 272 -16 2.0 58.6 3.7
5/18/21 - 0300 56.7 55.5 78 49.5 0.00 73.2 28.9 0.6 S | 180 2.0 272 -23 1.2 56.7 3.7
5/18/21 - 0200 56.5 55.0 79 49.2 0.00 73.5 28.9 0.6 S | 183 2.3 272 -36 1.4 55.5 3.7
5/18/21 - 0100 58.5 56.4 73 49.0 0.00 73.4 28.9 1.4 SSW | 195 4.3 271 -31 3.0 58.1 3.7
5/18/21 - 0000 58.0 56.0 74 49.0 0.00 71.9 28.9 0.3 SSW | 203 1.6 271 -18 0.9 56.7 3.7
5/17/21 - 2300 56.1 54.7 76 48.0 0.00 71.5 29.0 0.2 SE | 143 1.1 271 -40 0.9 51.7 3.7
5/17/21 - 2200 56.3 55.2 75 47.9 0.00 71.2 29.0 0.8 S | 178 2.0 271 -57 1.7 49.3 3.7
5/17/21 - 2100 58.8 56.0 71 48.1 0.00 72.0 29.0 0.6 S | 182 2.1 271 -62 1.3 53.6 3.7
5/17/21 - 2000 61.0 58.7 66 48.3 0.00 71.2 29.0 0.9 S | 180 3.6 270 -67 2.1 60.0 3.7
5/17/21 - 1900 64.6 60.8 61 48.7 0.00 73.0 29.0 3.0 SSE | 164 6.8 269 -52 4.2 68.4 3.7
5/17/21 - 1800 68.4 64.5 53 48.8 0.00 71.4 29.0 3.6 SSE | 168 7.5 268 54 5.0 74.1 3.7
5/17/21 - 1700 70.7 67.4 50 49.1 0.00 71.4 28.9 3.6 SSE | 159 8.6 267 201 6.2 78.9 3.7
5/17/21 - 1600 72.4 69.3 47 49.4 0.00 72.5 28.9 3.7 SE | 146 9.4 267 344 6.2 83.3 3.7
5/17/21 - 1500 71.3 69.2 47 49.0 0.00 71.9 28.9 4.7 SSE | 159 10.9 267 468 6.5 91.7 3.7
5/17/21 - 1400 72.2 69.7 47 49.6 0.00 71.2 28.8 4.8 SSE | 158 11.7 266 554 7.0 104.0 3.7
5/17/21 - 1300 75.9 71.0 43 49.9 0.00 71.8 28.7 2.6 ENE | 73 10.2 267 550 6.1 125.0 3.7
5/17/21 - 1200 73.9 66.3 48 48.9 0.00 71.6 28.7 2.4 WSW | 242 7.8 266 616 5.5 123.2 3.7
5/17/21 - 1100 67.5 64.2 54 48.8 0.00 72.8 28.7 2.5 SSW | 194 7.3 267 328 5.5 105.2 3.7
5/17/21 - 1000 67.2 62.3 58 48.5 0.00 72.6 28.7 2.2 S | 182 7.1 266 290 5.2 95.9 3.7
5/17/21 - 0900 63.4 60.8 62 48.5 0.00 72.7 28.7 1.8 SSW | 201 6.5 268 203 4.1 82.3 3.7
5/17/21 - 0800 61.7 58.3 67 48.8 0.00 74.3 28.8 1.1 W | 266 4.6 268 152 3.8 79.5 3.7
5/17/21 - 0700 58.4 56.5 73 49.0 0.00 74.4 28.8 2.3 SW | 233 4.8 270 75 3.4 69.8 3.7
5/17/21 - 0600 56.6 56.0 77 49.0 0.00 74.0 28.8 2.0 SW | 224 4.5 271 -1 2.8 60.2 3.7
5/17/21 - 0500 56.4 56.0 76 48.9 0.00 73.7 28.8 1.7 SW | 224 3.6 271 -16 2.2 58.8 3.7
5/17/21 - 0400 56.6 56.1 76 48.8 0.00 74.7 28.9 1.6 SW | 230 3.7 271 -16 2.5 58.7 3.7
5/17/21 - 0300 56.8 56.3 75 48.7 0.00 74.1 28.9 1.5 SW | 221 3.7 271 -16 2.5 58.7 3.7
5/17/21 - 0200 56.9 56.4 74 48.6 0.00 74.1 28.9 1.9 SW | 220 4.0 271 -16 3.0 58.5 3.7
5/17/21 - 0100 57.3 56.7 73 48.3 0.00 73.7 29.0 2.2 SW | 231 4.2 271 -16 3.5 58.6 3.7
5/17/21 - 0000 57.5 56.9 72 48.2 0.00 73.6 29.0 2.9 SW | 234 6.4 270 -16 4.1 58.9 3.7
5/16/21 - 2300 58.5 57.3 70 48.0 0.00 73.0 29.0 3.3 SW | 228 6.7 270 -16 4.3 59.1 3.7
5/16/21 - 2200 58.8 58.2 68 48.1 0.00 73.3 29.0 1.1 W | 259 4.1 270 -17 2.8 59.4 3.7
5/16/21 - 2100 59.5 58.5 66 47.8 0.00 73.0 29.0 0.9 W | 278 4.3 270 -17 2.9 60.3 3.7
5/16/21 - 2000 59.1 58.6 66 47.4 0.00 73.1 29.0 1.4 S | 184 4.5 270 -17 3.3 60.1 3.7
5/16/21 - 1900 59.7 58.8 65 47.5 0.00 73.4 29.0 2.7 S | 183 6.0 270 -14 4.0 62.6 3.7
5/16/21 - 1800 60.8 59.4 63 47.5 0.00 73.1 29.0 3.2 S | 180 7.3 269 1 4.9 64.6 3.7
5/16/21 - 1700 61.7 60.4 61 47.6 0.00 73.3 29.0 2.8 S | 191 6.6 269 21 4.2 68.0 3.7
5/16/21 - 1600 62.0 61.3 59 47.1 0.00 73.4 29.1 2.9 S | 169 6.9 268 49 4.6 70.5 3.7
5/16/21 - 1500 62.7 61.7 58 47.1 0.00 73.3 29.1 3.3 S | 180 6.8 268 66 5.1 70.4 3.7
5/16/21 - 1400 63.1 61.8 57 47.2 0.00 73.3 29.1 2.9 SSE | 164 6.8 269 77 5.3 74.7 3.7
5/16/21 - 1300 63.4 60.9 58 47.2 0.00 73.4 29.0 2.6 SE | 143 6.6 268 142 5.8 76.8 3.7
5/16/21 - 1200 61.9 60.8 59 46.8 0.00 73.3 29.1 3.4 SSW | 192 7.3 269 65 5.9 73.2 3.7
5/16/21 - 1100 61.8 60.8 60 47.4 0.00 73.4 29.1 1.7 S | 182 7.2 269 95 4.8 76.2 3.7
5/16/21 - 1000 61.8 58.8 64 47.8 0.00 73.4 29.1 2.3 S | 184 6.3 268 155 4.2 76.1 3.7
5/16/21 - 0900 59.5 58.0 68 48.1 0.00 73.8 29.1 2.5 SSW | 198 7.3 270 131 5.3 73.3 3.7
5/16/21 - 0800 58.4 56.6 71 48.2 0.00 73.8 29.2 0.8 S | 181 4.1 270 81 3.3 68.5 3.7
5/16/21 - 0700 56.9 55.5 76 48.5 0.00 73.9 29.2 1.2 SSW | 205 4.1 271 32 2.5 62.5 3.7
5/16/21 - 0600 55.8 55.3 77 48.5 0.00 74.0 29.2 1.1 SSW | 194 3.4 271 -8 2.4 58.0 3.7
5/16/21 - 0500 56.3 55.2 77 48.3 0.00 74.2 29.3 1.7 SSW | 192 5.1 271 -15 3.3 57.3 3.7
5/16/21 - 0400 56.7 56.0 74 48.1 0.00 74.6 29.3 1.2 SE | 129 4.0 271 -16 2.5 57.5 3.7
5/16/21 - 0300 56.9 56.4 73 47.9 0.00 74.6 29.3 0.8 ESE | 116 3.0 271 -16